createdAt,value
2022-11-25T00:02:25.327Z,76.09
2022-11-25T00:04:58.173Z,76.36
2022-11-25T00:07:30.949Z,76.55
2022-11-25T00:10:03.701Z,77.13
2022-11-25T00:12:36.368Z,77.28
2022-11-25T00:15:10.700Z,76.77
2022-11-25T00:17:43.456Z,76.50
2022-11-25T00:20:16.234Z,76.37
2022-11-25T00:22:48.921Z,76.03
2022-11-25T00:25:22.334Z,75.86
2022-11-25T00:27:55.165Z,75.85
2022-11-25T00:30:32.904Z,76.28
2022-11-25T00:33:05.467Z,76.32
2022-11-25T00:35:38.044Z,76.39
2022-11-25T00:38:10.607Z,76.62
2022-11-25T00:40:43.159Z,76.51
2022-11-25T00:43:33.173Z,76.58
2022-11-25T00:46:07.188Z,77.05
2022-11-25T00:48:40.039Z,76.55
2022-11-25T00:51:12.659Z,76.54
2022-11-25T00:53:45.624Z,76.66
2022-11-25T00:56:18.398Z,76.49
2022-11-25T00:58:50.983Z,76.08
2022-11-25T01:01:25.255Z,76.01
2022-11-25T01:03:57.909Z,76.23
2022-11-25T01:06:30.630Z,76.10
2022-11-25T01:09:03.847Z,76.02
2022-11-25T01:11:36.509Z,75.80
2022-11-25T01:14:09.863Z,75.98
2022-11-25T01:16:44.049Z,75.96
2022-11-25T01:19:17.490Z,75.83
2022-11-25T01:21:50.104Z,75.66
2022-11-25T01:24:24.148Z,75.93
2022-11-25T01:26:59.665Z,76.34
2022-11-25T01:29:32.241Z,76.04
2022-11-25T01:32:07.296Z,76.33
2022-11-25T01:34:40.118Z,76.01
2022-11-25T01:37:12.842Z,75.63
2022-11-25T01:39:45.595Z,75.76
2022-11-25T01:42:18.573Z,76.50
2022-11-25T01:45:06.056Z,76.16
2022-11-25T01:47:39.977Z,76.28
2022-11-25T01:50:14.127Z,76.21
2022-11-25T01:52:50.141Z,75.93
2022-11-25T01:55:25.679Z,76.34
2022-11-25T01:58:00.468Z,76.55
2022-11-25T02:00:33.169Z,76.26
2022-11-25T02:03:08.371Z,76.64
2022-11-25T02:05:47.294Z,76.69
2022-11-25T02:08:21.092Z,76.59
2022-11-25T02:10:54.518Z,76.51
2022-11-25T02:13:27.368Z,76.41
2022-11-25T02:16:00.017Z,76.24
2022-11-25T02:18:34.329Z,76.24
2022-11-25T02:21:07.199Z,75.95
2022-11-25T02:23:43.080Z,75.75
2022-11-25T02:26:17.249Z,75.66
2022-11-25T02:28:50.112Z,75.95
2022-11-25T02:31:26.697Z,76.04
2022-11-25T02:33:59.636Z,75.79
2022-11-25T02:36:32.597Z,75.54
2022-11-25T02:39:05.826Z,75.88
2022-11-25T02:41:43.154Z,75.64
2022-11-25T02:44:15.996Z,75.77
2022-11-25T02:46:49.122Z,75.62
2022-11-25T02:49:24.560Z,75.93
2022-11-25T02:51:57.667Z,75.92
2022-11-25T02:54:30.309Z,75.60
2022-11-25T02:57:04.344Z,75.50
2022-11-25T02:59:39.680Z,75.66
2022-11-25T03:02:12.328Z,75.75
2022-11-25T03:04:49.071Z,75.84
2022-11-25T03:07:21.865Z,75.76
2022-11-25T03:09:54.658Z,75.75
2022-11-25T03:12:30.161Z,76.19
2022-11-25T03:15:03.961Z,76.13
2022-11-25T03:17:36.488Z,75.81
2022-11-25T03:20:09.709Z,75.67
2022-11-25T03:22:42.646Z,75.61
2022-11-25T03:25:15.409Z,75.45
2022-11-25T03:27:50.513Z,75.76
2022-11-25T03:30:24.544Z,75.06
2022-11-25T03:33:00.156Z,75.38
2022-11-25T03:35:33.304Z,75.71
2022-11-25T03:38:05.948Z,75.14
2022-11-25T03:40:41.704Z,75.51
2022-11-25T03:43:16.256Z,75.36
2022-11-25T03:45:49.447Z,76.00
2022-11-25T03:48:22.836Z,75.57
2022-11-25T03:50:55.560Z,75.94
2022-11-25T03:53:30.385Z,75.65
2022-11-25T03:56:05.522Z,75.46
2022-11-25T03:58:39.449Z,75.84
2022-11-25T04:01:14.750Z,75.81
2022-11-25T04:03:50.886Z,75.69
2022-11-25T04:06:24.074Z,75.60
2022-11-25T04:08:59.537Z,75.77
2022-11-25T04:11:46.465Z,75.15
2022-11-25T04:14:20.850Z,75.74
2022-11-25T04:16:53.623Z,75.50
2022-11-25T04:19:26.587Z,75.71
2022-11-25T04:21:59.789Z,75.61
2022-11-25T04:24:35.697Z,75.90
2022-11-25T04:27:09.744Z,76.10
2022-11-25T04:29:44.760Z,76.11
2022-11-25T04:32:19.969Z,76.10
2022-11-25T04:34:52.452Z,76.13
2022-11-25T04:37:25.873Z,76.21
2022-11-25T04:39:59.928Z,75.94
2022-11-25T04:42:33.233Z,76.00
2022-11-25T04:45:26.173Z,76.42
2022-11-25T04:48:01.366Z,75.64
2022-11-25T04:50:34.684Z,75.69
2022-11-25T04:53:13.561Z,76.13
2022-11-25T04:55:46.125Z,76.19
2022-11-25T04:58:35.040Z,75.74
2022-11-25T05:01:10.645Z,76.48
2022-11-25T05:03:54.437Z,76.01
2022-11-25T05:06:30.099Z,76.33
2022-11-25T05:09:04.542Z,76.18
2022-11-25T05:11:39.420Z,76.02
2022-11-25T05:14:12.022Z,76.54
2022-11-25T05:16:46.553Z,76.51
2022-11-25T05:19:19.506Z,76.30
2022-11-25T05:21:52.185Z,75.51
2022-11-25T05:24:25.036Z,75.92
2022-11-25T05:26:58.553Z,76.10
2022-11-25T05:29:31.261Z,76.00
2022-11-25T05:32:05.332Z,75.39
2022-11-25T05:34:39.061Z,75.81
2022-11-25T05:37:14.171Z,76.07
2022-11-25T05:39:54.709Z,75.89
2022-11-25T05:42:38.963Z,75.62
2022-11-25T05:45:13.606Z,75.26
2022-11-25T05:47:47.716Z,75.45
2022-11-25T05:50:24.954Z,75.68
2022-11-25T05:53:17.239Z,76.16
2022-11-25T05:55:54.773Z,75.82
2022-11-25T05:58:35.821Z,75.67
2022-11-25T06:01:10.423Z,75.95
2022-11-25T06:03:44.512Z,75.71
2022-11-25T06:06:17.664Z,75.67
2022-11-25T06:08:50.425Z,75.75
2022-11-25T06:11:23.343Z,76.18
2022-11-25T06:13:57.489Z,75.83
2022-11-25T06:16:30.386Z,75.67
2022-11-25T06:19:23.303Z,75.61
2022-11-25T06:21:57.751Z,75.87
2022-11-25T06:24:31.770Z,76.18
2022-11-25T06:27:10.009Z,75.96
2022-11-25T06:29:44.156Z,76.16
2022-11-25T06:32:17.513Z,76.64
2022-11-25T06:35:11.031Z,76.19
2022-11-25T06:37:56.379Z,76.46
2022-11-25T06:40:28.922Z,76.59
2022-11-25T06:43:01.512Z,76.52
2022-11-25T06:45:34.506Z,76.51
2022-11-25T06:48:07.227Z,76.55
2022-11-25T06:50:41.136Z,76.50
2022-11-25T06:53:13.684Z,76.30
2022-11-25T06:55:46.294Z,76.22
2022-11-25T06:58:34.932Z,76.69
2022-11-25T07:01:11.712Z,76.62
2022-11-25T07:03:44.909Z,76.41
2022-11-25T07:06:19.303Z,76.62
2022-11-25T07:08:52.480Z,77.14
2022-11-25T07:11:26.422Z,76.83
2022-11-25T07:14:00.123Z,76.73
2022-11-25T07:16:33.642Z,76.40
2022-11-25T07:19:07.144Z,76.19
2022-11-25T07:21:43.278Z,76.34
2022-11-25T07:24:16.823Z,76.37
2022-11-25T07:26:49.325Z,76.37
2022-11-25T07:32:14.500Z,76.52
2022-11-25T07:34:47.150Z,76.67
2022-11-25T07:37:21.247Z,76.52
2022-11-25T07:39:54.309Z,76.33
2022-11-25T07:42:26.949Z,76.19
2022-11-25T07:44:59.870Z,75.96
2022-11-25T07:47:46.153Z,76.20
2022-11-25T07:50:19.041Z,76.26
2022-11-25T07:52:53.037Z,76.25
2022-11-25T07:55:25.627Z,76.17
2022-11-25T07:57:58.123Z,76.25
2022-11-25T08:00:30.660Z,76.67
2022-11-25T08:03:03.420Z,76.11
2022-11-25T08:05:36.293Z,76.61
2022-11-25T08:08:10.316Z,76.33
2022-11-25T08:10:42.895Z,76.54
2022-11-25T08:13:15.515Z,76.65
2022-11-25T08:15:48.295Z,76.40
2022-11-25T08:18:20.809Z,76.17
2022-11-25T08:20:53.790Z,76.49
2022-11-25T08:23:27.678Z,76.12
2022-11-25T08:26:04.355Z,76.68
2022-11-25T08:28:37.723Z,76.47
2022-11-25T08:31:11.995Z,76.39
2022-11-25T08:33:44.839Z,76.01
2022-11-25T08:36:17.933Z,76.30
2022-11-25T08:38:53.057Z,76.11
2022-11-25T08:41:27.967Z,76.14
2022-11-25T08:44:01.742Z,76.26
2022-11-25T08:46:36.713Z,76.34
2022-11-25T08:49:09.871Z,75.88
2022-11-25T08:51:42.587Z,76.14
2022-11-25T08:54:17.059Z,76.03
2022-11-25T08:56:49.676Z,76.11
2022-11-25T08:59:22.790Z,76.43
2022-11-25T09:01:55.684Z,76.13
2022-11-25T09:04:28.327Z,76.26
2022-11-25T09:07:00.992Z,76.59
2022-11-25T09:09:35.692Z,76.16
2022-11-25T09:12:08.732Z,76.05
2022-11-25T09:14:41.494Z,76.44
2022-11-25T09:17:15.641Z,75.97
2022-11-25T09:19:48.207Z,76.58
2022-11-25T09:22:20.788Z,75.99
2022-11-25T09:24:54.787Z,75.72
2022-11-25T09:27:27.490Z,75.75
2022-11-25T09:30:00.098Z,76.14
2022-11-25T09:32:32.824Z,75.42
2022-11-25T09:35:05.723Z,75.69
2022-11-25T09:37:38.434Z,76.14
2022-11-25T09:40:18.560Z,76.19
2022-11-25T09:43:11.923Z,75.71
2022-11-25T09:46:06.370Z,75.57
2022-11-25T09:48:44.345Z,75.93
2022-11-25T09:51:20.063Z,76.36
2022-11-25T09:53:54.492Z,76.44
2022-11-25T09:56:33.013Z,76.43
2022-11-25T09:59:08.211Z,75.74
2022-11-25T10:01:46.940Z,75.68
2022-11-25T10:04:24.502Z,76.06
2022-11-25T10:07:01.136Z,75.88
2022-11-25T10:09:36.747Z,76.17
2022-11-25T10:12:17.399Z,76.04
2022-11-25T10:14:50.677Z,76.30
2022-11-25T10:17:31.518Z,76.62
2022-11-25T10:20:06.379Z,77.22
2022-11-25T10:22:42.812Z,76.75
2022-11-25T10:25:16.935Z,77.14
2022-11-25T10:27:53.873Z,76.97
2022-11-25T10:30:27.575Z,76.15
2022-11-25T10:33:04.728Z,77.36
2022-11-25T10:35:41.434Z,77.24
2022-11-25T10:38:19.120Z,77.23
2022-11-25T10:40:53.424Z,77.13
2022-11-25T10:43:31.679Z,77.34
2022-11-25T10:46:10.327Z,76.93
2022-11-25T10:48:49.540Z,76.43
2022-11-25T10:51:32.811Z,78.10
2022-11-25T10:54:16.806Z,77.90
2022-11-25T10:56:51.570Z,77.08
2022-11-25T10:59:29.799Z,78.67
2022-11-25T11:02:15.875Z,76.62
2022-11-25T11:05:06.172Z,76.37
2022-11-25T11:07:40.635Z,77.52
2022-11-25T11:10:20.667Z,75.72
2022-11-25T11:12:57.502Z,77.12
2022-11-25T11:15:32.215Z,77.84
2022-11-25T11:18:16.071Z,76.58
2022-11-25T11:20:49.580Z,76.99
2022-11-25T11:23:22.617Z,76.07
2022-11-25T11:25:56.545Z,76.96
2022-11-25T11:28:32.905Z,75.11
2022-11-25T11:31:08.812Z,76.18
2022-11-25T11:33:44.273Z,76.55
2022-11-25T11:36:23.157Z,77.74
2022-11-25T11:38:57.765Z,76.58
2022-11-25T11:41:36.860Z,75.99
2022-11-25T11:44:14.828Z,76.41
2022-11-25T11:46:59.905Z,77.04
2022-11-25T11:49:50.359Z,76.19
2022-11-25T11:52:28.734Z,78.23
2022-11-25T11:55:03.520Z,77.87
2022-11-25T11:57:42.701Z,76.58
2022-11-25T12:00:17.494Z,76.65
2022-11-25T12:02:57.963Z,77.49
2022-11-25T12:05:34.347Z,76.96
2022-11-25T12:08:11.346Z,77.13
2022-11-25T12:10:45.729Z,77.02
2022-11-25T12:13:21.297Z,76.89
2022-11-25T12:15:56.449Z,76.25
2022-11-25T12:18:36.019Z,77.64
2022-11-25T12:21:10.606Z,78.02
2022-11-25T12:23:46.129Z,77.34
2022-11-25T12:26:21.909Z,78.03
2022-11-25T12:28:56.376Z,77.78
2022-11-25T12:31:31.041Z,76.55
2022-11-25T12:34:07.023Z,77.37
2022-11-25T12:36:41.616Z,76.45
2022-11-25T12:39:20.482Z,77.22
2022-11-25T12:41:54.306Z,77.08
2022-11-25T12:44:30.739Z,77.39
2022-11-25T12:47:03.669Z,77.34
2022-11-25T12:49:41.486Z,77.41
2022-11-25T12:52:37.277Z,78.12
2022-11-25T12:55:11.365Z,77.18
2022-11-25T12:58:07.902Z,77.15
2022-11-25T13:00:52.632Z,76.36
2022-11-25T13:03:38.756Z,75.83
2022-11-25T13:06:23.829Z,75.39
2022-11-25T13:08:59.957Z,77.01
2022-11-25T13:11:42.390Z,75.22
2022-11-25T13:14:21.941Z,76.40
2022-11-25T13:16:56.302Z,76.50
2022-11-25T13:19:29.229Z,75.29
2022-11-25T13:22:04.471Z,76.63
2022-11-25T13:24:40.028Z,75.51
2022-11-25T13:27:32.899Z,76.92
2022-11-25T13:30:25.874Z,75.54
2022-11-25T13:32:58.832Z,75.40
2022-11-25T13:35:32.553Z,76.43
2022-11-25T13:38:22.912Z,76.16
2022-11-25T13:40:59.172Z,76.76
2022-11-25T13:43:31.728Z,76.71
2022-11-25T13:46:04.613Z,75.62
2022-11-25T13:48:38.136Z,75.58
2022-11-25T13:51:16.390Z,75.61
2022-11-25T13:53:52.659Z,75.12
2022-11-25T13:56:31.635Z,75.44
2022-11-25T13:59:20.323Z,75.02
2022-11-25T14:01:54.040Z,75.56
2022-11-25T14:04:37.488Z,75.12
2022-11-25T14:07:20.111Z,75.19
2022-11-25T14:10:01.869Z,75.27
2022-11-25T14:12:49.718Z,75.96
2022-11-25T14:15:31.400Z,76.17
2022-11-25T14:18:31.478Z,75.52
2022-11-25T14:21:22.829Z,75.05
2022-11-25T14:24:04.196Z,75.29
2022-11-25T14:26:49.657Z,76.25
2022-11-25T14:29:27.767Z,75.96
2022-11-25T14:32:02.314Z,77.96
2022-11-25T14:34:37.795Z,77.46
2022-11-25T14:37:15.447Z,75.91
2022-11-25T14:39:51.644Z,77.29
2022-11-25T14:42:29.052Z,77.91
2022-11-25T14:45:03.302Z,75.71
2022-11-25T14:47:39.278Z,76.90
2022-11-25T14:53:07.837Z,75.81
2022-11-25T14:55:40.844Z,75.15
2022-11-25T14:58:13.956Z,75.53
2022-11-25T15:01:02.783Z,76.15
2022-11-25T15:03:35.560Z,76.33
2022-11-25T15:06:08.294Z,75.65
2022-11-25T15:08:42.431Z,74.72
2022-11-25T15:11:23.359Z,75.22
2022-11-25T15:13:58.694Z,75.76
2022-11-25T15:16:34.605Z,76.29
2022-11-25T15:19:13.214Z,76.12
2022-11-25T15:22:14.998Z,75.12
2022-11-25T15:24:42.583Z,75.65
2022-11-25T15:27:16.165Z,75.26
2022-11-25T15:29:52.254Z,75.41
2022-11-25T15:32:28.185Z,76.59
2022-11-25T15:35:02.479Z,74.94
2022-11-25T15:37:35.601Z,75.29
2022-11-25T15:40:26.619Z,76.73
2022-11-25T15:43:01.109Z,75.08
2022-11-25T15:45:45.322Z,76.04
2022-11-25T15:48:27.195Z,76.22
2022-11-25T15:51:05.657Z,74.98
2022-11-25T15:53:41.675Z,75.06
2022-11-25T15:56:22.338Z,75.58
2022-11-25T15:59:00.276Z,76.05
2022-11-25T16:01:35.216Z,75.01
2022-11-25T16:04:13.929Z,75.92
2022-11-25T16:06:54.027Z,75.31
2022-11-25T16:09:33.017Z,76.41
2022-11-25T16:12:06.664Z,76.52
2022-11-25T16:14:39.678Z,76.29
2022-11-25T16:17:13.686Z,76.09
2022-11-25T16:19:49.317Z,76.26
2022-11-25T16:22:22.226Z,75.74
2022-11-25T16:25:01.856Z,75.95
2022-11-25T16:27:40.791Z,76.16
2022-11-25T16:30:19.678Z,75.74
2022-11-25T16:32:54.764Z,77.11
2022-11-25T16:35:28.864Z,77.84
2022-11-25T16:38:02.948Z,77.77
2022-11-25T16:40:37.724Z,77.98
2022-11-25T16:43:15.443Z,78.47
2022-11-25T16:45:50.260Z,77.65
2022-11-25T16:48:23.776Z,78.19
2022-11-25T16:50:58.547Z,77.39
2022-11-25T16:53:33.812Z,77.42
2022-11-25T16:56:07.569Z,77.88
2022-11-25T16:58:45.104Z,78.67
2022-11-25T17:01:19.123Z,78.43
2022-11-25T17:03:52.285Z,78.29
2022-11-25T17:06:27.892Z,77.07
2022-11-25T17:09:03.164Z,78.20
2022-11-25T17:11:43.291Z,77.89
2022-11-25T17:14:21.930Z,78.28
2022-11-25T17:16:55.026Z,78.10
2022-11-25T17:19:27.767Z,77.92
2022-11-25T17:22:03.277Z,77.41
2022-11-25T17:24:36.278Z,76.99
2022-11-25T17:27:09.430Z,77.45
2022-11-25T17:29:47.694Z,77.25
2022-11-25T17:32:21.033Z,77.40
2022-11-25T17:34:54.686Z,78.09
2022-11-25T17:37:31.273Z,77.02
2022-11-25T17:40:06.856Z,78.02
2022-11-25T17:42:39.972Z,77.72
2022-11-25T17:45:14.225Z,77.85
2022-11-25T17:47:47.245Z,78.05
2022-11-25T17:50:20.803Z,77.43
2022-11-25T17:52:54.973Z,77.55
2022-11-25T17:55:27.576Z,76.64
2022-11-25T17:58:02.304Z,76.60
2022-11-25T18:00:35.511Z,76.83
2022-11-25T18:03:11.974Z,76.33
2022-11-25T18:05:50.903Z,76.78
2022-11-25T18:08:27.652Z,77.19
2022-11-25T18:11:03.470Z,78.13
2022-11-25T18:13:38.260Z,77.81
2022-11-25T18:16:12.011Z,77.72
2022-11-25T18:18:47.077Z,78.18
2022-11-25T18:21:20.520Z,77.88
2022-11-25T18:24:00.099Z,77.28
2022-11-25T18:26:37.508Z,77.67
2022-11-25T18:29:17.610Z,78.24
2022-11-25T18:31:50.960Z,77.62
2022-11-25T18:34:24.066Z,78.03
2022-11-25T18:36:56.709Z,77.62
2022-11-25T18:39:30.870Z,78.29
2022-11-25T18:42:04.863Z,77.46
2022-11-25T18:44:44.886Z,77.36
2022-11-25T18:47:17.645Z,77.35
2022-11-25T18:49:55.453Z,78.69
2022-11-25T18:52:29.649Z,76.91
2022-11-25T18:55:03.904Z,77.58
2022-11-25T18:57:36.708Z,77.86
2022-11-25T19:00:31.653Z,77.89
2022-11-25T19:03:05.984Z,77.03
2022-11-25T19:05:38.919Z,77.46
2022-11-25T19:08:11.743Z,77.12
2022-11-25T19:10:46.941Z,77.10
2022-11-25T19:13:21.928Z,77.46
2022-11-25T19:15:55.249Z,77.34
2022-11-25T19:18:31.891Z,77.49
2022-11-25T19:21:07.839Z,77.31
2022-11-25T19:23:41.956Z,77.33
2022-11-25T19:26:19.283Z,77.17
2022-11-25T19:29:07.910Z,76.92
2022-11-25T19:31:40.849Z,77.18
2022-11-25T19:34:24.168Z,77.36
2022-11-25T19:36:57.532Z,76.99
2022-11-25T19:39:39.266Z,77.26
2022-11-25T19:42:16.017Z,77.05
2022-11-25T19:44:52.277Z,77.38
2022-11-25T19:47:28.770Z,77.03
2022-11-25T19:50:03.640Z,77.55
2022-11-25T19:52:38.054Z,77.16
2022-11-25T19:55:16.506Z,76.98
2022-11-25T19:57:51.566Z,76.79
2022-11-25T20:00:25.221Z,76.96
2022-11-25T20:02:58.122Z,77.31
2022-11-25T20:05:33.204Z,76.96
2022-11-25T20:08:06.565Z,77.34
2022-11-25T20:10:41.279Z,76.48
2022-11-25T20:13:26.885Z,77.47
2022-11-25T20:16:00.320Z,77.03
2022-11-25T20:18:41.067Z,77.05
2022-11-25T20:21:17.959Z,77.04
2022-11-25T20:23:51.265Z,76.98
2022-11-25T20:26:35.507Z,77.10
2022-11-25T20:29:15.195Z,76.81
2022-11-25T20:31:50.151Z,76.73
2022-11-25T20:34:23.141Z,77.42
2022-11-25T20:36:57.440Z,76.91
2022-11-25T20:39:30.273Z,77.12
2022-11-25T20:42:04.269Z,76.59
2022-11-25T20:44:41.516Z,77.13
2022-11-25T20:47:16.621Z,76.86
2022-11-25T20:49:52.629Z,76.78
2022-11-25T20:52:28.399Z,76.55
2022-11-25T20:55:05.997Z,76.83
2022-11-25T20:57:41.499Z,77.22
2022-11-25T21:00:17.538Z,76.96
2022-11-25T21:02:50.874Z,77.12
2022-11-25T21:05:24.608Z,77.28
2022-11-25T21:07:57.429Z,76.75
2022-11-25T21:10:34.745Z,77.03
2022-11-25T21:13:11.058Z,77.28
2022-11-25T21:15:46.538Z,76.81
2022-11-25T21:18:19.443Z,76.93
2022-11-25T21:20:53.826Z,76.84
2022-11-25T21:23:29.688Z,76.91
2022-11-25T21:26:05.505Z,76.58
2022-11-25T21:28:43.325Z,76.60
2022-11-25T21:31:19.189Z,77.06
2022-11-25T21:33:52.174Z,76.91
2022-11-25T21:36:30.378Z,76.51
2022-11-25T21:39:04.129Z,76.12
2022-11-25T21:41:37.215Z,76.30
2022-11-25T21:44:16.024Z,76.33
2022-11-25T21:46:50.400Z,76.33
2022-11-25T21:49:23.066Z,76.35
2022-11-25T21:51:55.588Z,76.74
2022-11-25T21:54:28.126Z,76.16
2022-11-25T21:57:00.631Z,76.40
2022-11-25T21:59:33.281Z,76.66
2022-11-25T22:02:13.990Z,76.33
2022-11-25T22:04:46.531Z,76.47
2022-11-25T22:07:19.438Z,76.08
2022-11-25T22:09:52.046Z,76.36
2022-11-25T22:12:27.531Z,76.40
2022-11-25T22:15:00.629Z,76.96
2022-11-25T22:17:35.463Z,76.67
2022-11-25T22:20:15.298Z,76.65
2022-11-25T22:22:48.241Z,76.41
2022-11-25T22:25:24.286Z,76.33
2022-11-25T22:27:57.117Z,76.17
2022-11-25T22:30:29.906Z,76.35
2022-11-25T22:33:04.507Z,76.12
2022-11-25T22:35:37.275Z,76.47
2022-11-25T22:38:15.379Z,76.18
2022-11-25T22:40:51.053Z,76.74
2022-11-25T22:43:26.435Z,76.50
2022-11-25T22:45:59.328Z,76.29
2022-11-25T22:48:36.004Z,76.47
2022-11-25T22:51:15.680Z,76.40
2022-11-25T22:53:48.427Z,76.07
2022-11-25T22:56:21.336Z,76.05
2022-11-25T22:58:58.818Z,76.11
2022-11-25T23:01:31.645Z,75.95
2022-11-25T23:04:06.701Z,76.43
2022-11-25T23:06:39.392Z,76.58
2022-11-25T23:09:14.437Z,76.32
2022-11-25T23:11:47.527Z,76.35
2022-11-25T23:14:20.086Z,76.16
2022-11-25T23:16:52.698Z,76.78
2022-11-25T23:19:27.171Z,76.65
2022-11-25T23:21:59.873Z,76.35
2022-11-25T23:24:32.459Z,76.78
2022-11-25T23:27:05.266Z,76.66
2022-11-25T23:29:37.920Z,76.45
2022-11-25T23:32:21.047Z,76.71
2022-11-25T23:34:55.211Z,76.54
2022-11-25T23:37:28.636Z,76.27
2022-11-25T23:40:01.419Z,76.46
2022-11-25T23:42:34.036Z,76.51
2022-11-25T23:45:07.472Z,76.69
2022-11-25T23:47:41.631Z,76.66
2022-11-25T23:50:23.010Z,76.54
2022-11-25T23:52:57.472Z,76.62
2022-11-25T23:55:32.419Z,76.40
2022-11-25T23:58:10.319Z,76.24
